Аэропорт: Астана. Астана

ICAO: UACC

METAR:
2018/11/21 18:30
UACC 211830Z 20006MPS 1700 R22/P2000 SN SCT008 OVC026 M03/M03 Q1009 R22/452050 NOSIG RMK QFE726/0968
METAR:
2018/11/21 18:18
TAF UACC 211700Z 2118/2218 22007MPS 3000 SN BKN007 BKN020 TX00/2209Z TNM06/2218Z 
      TEMPO 2118/2124 20010MPS 1000 SHSN BKN004 BKN015CB 
      BECMG 2200/2202 22008G13MPS 
      TEMPO 2200/2206 1000 SHSN BLSN BKN003 BKN015CB 
      TEMPO 2206/2213 23009G15MPS 1000 SHSNRA BLSN SCT004 BKN015CB